sensor_id;sensor_type;location;lat;lon;timestamp;pressure;altitude;pressure_sealevel;temperature;humidity
13029;BME280;6581;42.662;23.402;2022-11-12T00:01:29;96699.66;;;9.97;100.00
13029;BME280;6581;42.662;23.402;2022-11-12T00:04:15;96704.94;;;9.97;100.00
13029;BME280;6581;42.662;23.402;2022-11-12T00:07:01;96688.28;;;9.97;100.00
13029;BME280;6581;42.662;23.402;2022-11-12T00:09:48;96683.25;;;10.04;100.00
13029;BME280;6581;42.662;23.402;2022-11-12T00:12:33;96685.88;;;10.12;100.00
13029;BME280;6581;42.662;23.402;2022-11-12T00:15:19;96688.97;;;10.14;100.00
13029;BME280;6581;42.662;23.402;2022-11-12T00:18:05;96677.16;;;10.12;100.00
13029;BME280;6581;42.662;23.402;2022-11-12T00:20:52;96685.91;;;10.04;100.00
13029;BME280;6581;42.662;23.402;2022-11-12T00:23:37;96691.41;;;9.99;100.00
13029;BME280;6581;42.662;23.402;2022-11-12T00:26:24;96696.53;;;9.95;100.00
13029;BME280;6581;42.662;23.402;2022-11-12T00:29:10;96686.13;;;9.90;100.00
13029;BME280;6581;42.662;23.402;2022-11-12T00:31:56;96688.47;;;9.92;100.00
13029;BME280;6581;42.662;23.402;2022-11-12T00:34:42;96687.53;;;9.88;100.00
13029;BME280;6581;42.662;23.402;2022-11-12T00:37:28;96687.84;;;9.86;100.00
13029;BME280;6581;42.662;23.402;2022-11-12T00:40:14;96692.72;;;9.84;100.00
13029;BME280;6581;42.662;23.402;2022-11-12T00:43:01;96692.84;;;9.88;100.00
13029;BME280;6581;42.662;23.402;2022-11-12T00:45:47;96694.28;;;9.76;100.00
13029;BME280;6581;42.662;23.402;2022-11-12T00:48:32;96693.19;;;9.77;100.00
13029;BME280;6581;42.662;23.402;2022-11-12T00:51:18;96692.84;;;9.88;100.00
13029;BME280;6581;42.662;23.402;2022-11-12T00:54:04;96684.44;;;9.86;100.00
13029;BME280;6581;42.662;23.402;2022-11-12T00:56:50;96683.06;;;9.79;100.00
13029;BME280;6581;42.662;23.402;2022-11-12T00:59:37;96674.63;;;9.86;100.00
13029;BME280;6581;42.662;23.402;2022-11-12T01:02:23;96666.50;;;9.91;100.00
13029;BME280;6581;42.662;23.402;2022-11-12T01:05:09;96657.94;;;9.94;100.00
13029;BME280;6581;42.662;23.402;2022-11-12T01:07:55;96658.50;;;10.00;100.00
13029;BME280;6581;42.662;23.402;2022-11-12T01:10:40;96658.25;;;9.93;100.00
13029;BME280;6581;42.662;23.402;2022-11-12T01:13:26;96671.53;;;9.84;100.00
13029;BME280;6581;42.662;23.402;2022-11-12T01:16:16;96680.09;;;9.81;100.00
13029;BME280;6581;42.662;23.402;2022-11-12T01:19:04;96668.56;;;9.86;100.00
13029;BME280;6581;42.662;23.402;2022-11-12T01:21:50;96663.91;;;9.83;100.00
13029;BME280;6581;42.662;23.402;2022-11-12T01:24:36;96667.63;;;9.82;100.00
13029;BME280;6581;42.662;23.402;2022-11-12T01:27:21;96679.66;;;9.79;100.00
13029;BME280;6581;42.662;23.402;2022-11-12T01:30:08;96669.06;;;9.79;100.00
13029;BME280;6581;42.662;23.402;2022-11-12T01:32:55;96676.69;;;9.72;100.00
13029;BME280;6581;42.662;23.402;2022-11-12T01:35:41;96662.25;;;9.69;100.00
13029;BME280;6581;42.662;23.402;2022-11-12T01:38:26;96656.66;;;9.71;100.00
13029;BME280;6581;42.662;23.402;2022-11-12T01:41:15;96656.00;;;9.74;100.00
13029;BME280;6581;42.662;23.402;2022-11-12T01:44:06;96644.22;;;9.63;100.00
13029;BME280;6581;42.662;23.402;2022-11-12T01:47:03;96643.41;;;9.71;100.00
13029;BME280;6581;42.662;23.402;2022-11-12T01:49:52;96647.03;;;9.66;100.00
13029;BME280;6581;42.662;23.402;2022-11-12T01:52:42;96654.78;;;9.63;100.00
13029;BME280;6581;42.662;23.402;2022-11-12T01:55:34;96656.78;;;9.74;100.00
13029;BME280;6581;42.662;23.402;2022-11-12T01:58:23;96650.84;;;9.77;100.00
13029;BME280;6581;42.662;23.402;2022-11-12T02:01:12;96646.97;;;9.75;100.00
13029;BME280;6581;42.662;23.402;2022-11-12T02:03:58;96640.91;;;9.74;100.00
13029;BME280;6581;42.662;23.402;2022-11-12T02:06:45;96646.56;;;9.64;100.00
13029;BME280;6581;42.662;23.402;2022-11-12T02:09:32;96654.66;;;9.59;99.70
13029;BME280;6581;42.662;23.402;2022-11-12T02:12:19;96650.97;;;9.52;98.88
13029;BME280;6581;42.662;23.402;2022-11-12T02:15:19;96658.25;;;9.55;99.21
13029;BME280;6581;42.662;23.402;2022-11-12T02:18:05;96662.94;;;9.49;98.77
13029;BME280;6581;42.662;23.402;2022-11-12T02:21:03;96661.84;;;9.50;99.05
13029;BME280;6581;42.662;23.402;2022-11-12T02:23:58;96663.09;;;9.44;99.34
13029;BME280;6581;42.662;23.402;2022-11-12T02:26:46;96664.06;;;9.40;98.86
13029;BME280;6581;42.662;23.402;2022-11-12T02:29:34;96661.28;;;9.36;99.12
13029;BME280;6581;42.662;23.402;2022-11-12T02:32:20;96658.66;;;9.27;99.39
13029;BME280;6581;42.662;23.402;2022-11-12T02:35:06;96655.88;;;9.24;100.00
13029;BME280;6581;42.662;23.402;2022-11-12T02:37:52;96652.72;;;9.30;99.91
13029;BME280;6581;42.662;23.402;2022-11-12T02:40:39;96664.41;;;9.29;99.69
13029;BME280;6581;42.662;23.402;2022-11-12T02:43:25;96662.56;;;9.30;99.80
13029;BME280;6581;42.662;23.402;2022-11-12T02:46:11;96661.59;;;9.34;99.52
13029;BME280;6581;42.662;23.402;2022-11-12T02:48:57;96652.72;;;9.30;99.59
13029;BME280;6581;42.662;23.402;2022-11-12T02:51:43;96651.94;;;9.39;99.59
13029;BME280;6581;42.662;23.402;2022-11-12T02:54:28;96654.09;;;9.45;98.72
13029;BME280;6581;42.662;23.402;2022-11-12T02:57:16;96644.75;;;9.48;98.35
13029;BME280;6581;42.662;23.402;2022-11-12T03:00:03;96647.41;;;9.48;98.20
13029;BME280;6581;42.662;23.402;2022-11-12T03:02:48;96649.78;;;9.32;99.05
13029;BME280;6581;42.662;23.402;2022-11-12T03:05:42;96648.84;;;9.28;100.00
13029;BME280;6581;42.662;23.402;2022-11-12T03:08:53;96653.84;;;9.12;100.00
13029;BME280;6581;42.662;23.402;2022-11-12T03:11:38;96651.06;;;9.17;99.89
13029;BME280;6581;42.662;23.402;2022-11-12T03:14:26;96654.66;;;9.04;100.00
13029;BME280;6581;42.662;23.402;2022-11-12T03:17:12;96659.16;;;9.04;100.00
13029;BME280;6581;42.662;23.402;2022-11-12T03:19:58;96651.56;;;9.02;100.00
13029;BME280;6581;42.662;23.402;2022-11-12T03:22:57;96663.53;;;9.00;100.00
13029;BME280;6581;42.662;23.402;2022-11-12T03:25:43;96657.00;;;8.97;100.00
13029;BME280;6581;42.662;23.402;2022-11-12T03:28:29;96653.44;;;8.76;100.00
13029;BME280;6581;42.662;23.402;2022-11-12T03:31:17;96654.38;;;8.71;100.00
13029;BME280;6581;42.662;23.402;2022-11-12T03:34:02;96650.38;;;8.57;100.00
13029;BME280;6581;42.662;23.402;2022-11-12T03:36:48;96651.59;;;8.42;100.00
13029;BME280;6581;42.662;23.402;2022-11-12T03:39:59;96658.41;;;8.34;100.00
13029;BME280;6581;42.662;23.402;2022-11-12T03:43:09;96658.44;;;8.43;100.00
13029;BME280;6581;42.662;23.402;2022-11-12T03:45:55;96656.88;;;8.42;100.00
13029;BME280;6581;42.662;23.402;2022-11-12T03:48:45;96651.75;;;8.45;100.00
13029;BME280;6581;42.662;23.402;2022-11-12T03:51:31;96654.69;;;8.44;100.00
13029;BME280;6581;42.662;23.402;2022-11-12T03:54:17;96659.38;;;8.47;100.00
13029;BME280;6581;42.662;23.402;2022-11-12T03:57:03;96653.75;;;8.49;100.00
13029;BME280;6581;42.662;23.402;2022-11-12T03:59:48;96659.97;;;8.35;100.00
13029;BME280;6581;42.662;23.402;2022-11-12T04:02:35;96653.75;;;8.31;100.00
13029;BME280;6581;42.662;23.402;2022-11-12T04:05:23;96660.69;;;8.27;100.00
13029;BME280;6581;42.662;23.402;2022-11-12T04:08:26;96666.44;;;8.21;100.00
13029;BME280;6581;42.662;23.402;2022-11-12T04:11:26;96651.06;;;8.23;100.00
13029;BME280;6581;42.662;23.402;2022-11-12T04:14:12;96652.00;;;8.18;100.00
13029;BME280;6581;42.662;23.402;2022-11-12T04:16:58;96648.56;;;8.18;100.00
13029;BME280;6581;42.662;23.402;2022-11-12T04:20:01;96645.16;;;8.17;100.00
13029;BME280;6581;42.662;23.402;2022-11-12T04:23:07;96641.56;;;8.05;100.00
13029;BME280;6581;42.662;23.402;2022-11-12T04:25:53;96640.78;;;8.04;100.00
13029;BME280;6581;42.662;23.402;2022-11-12T04:28:56;96632.56;;;8.06;100.00
13029;BME280;6581;42.662;23.402;2022-11-12T04:32:00;96627.75;;;8.08;100.00
13029;BME280;6581;42.662;23.402;2022-11-12T04:34:45;96626.50;;;8.05;100.00
13029;BME280;6581;42.662;23.402;2022-11-12T04:37:32;96625.75;;;8.13;100.00
13029;BME280;6581;42.662;23.402;2022-11-12T04:40:30;96630.88;;;8.18;100.00
13029;BME280;6581;42.662;23.402;2022-11-12T04:43:33;96638.66;;;8.23;100.00
13029;BME280;6581;42.662;23.402;2022-11-12T04:46:37;96642.09;;;8.32;100.00
13029;BME280;6581;42.662;23.402;2022-11-12T04:49:23;96640.09;;;8.38;100.00
13029;BME280;6581;42.662;23.402;2022-11-12T04:52:34;96643.19;;;8.40;100.00
13029;BME280;6581;42.662;23.402;2022-11-12T04:55:19;96645.81;;;8.40;100.00
13029;BME280;6581;42.662;23.402;2022-11-12T04:58:06;96656.56;;;8.52;100.00
13029;BME280;6581;42.662;23.402;2022-11-12T05:00:52;96652.03;;;8.53;100.00
13029;BME280;6581;42.662;23.402;2022-11-12T05:03:38;96657.97;;;8.50;100.00
13029;BME280;6581;42.662;23.402;2022-11-12T05:06:23;96652.38;;;8.42;100.00
13029;BME280;6581;42.662;23.402;2022-11-12T05:09:27;96667.59;;;8.45;100.00
13029;BME280;6581;42.662;23.402;2022-11-12T05:12:13;96669.00;;;8.52;99.24
13029;BME280;6581;42.662;23.402;2022-11-12T05:15:01;96672.41;;;8.52;98.37
13029;BME280;6581;42.662;23.402;2022-11-12T05:17:46;96666.81;;;8.54;97.68
13029;BME280;6581;42.662;23.402;2022-11-12T05:20:33;96674.28;;;8.52;97.06
13029;BME280;6581;42.662;23.402;2022-11-12T05:23:22;96674.44;;;8.55;96.59
13029;BME280;6581;42.662;23.402;2022-11-12T05:26:08;96681.88;;;8.53;96.66
13029;BME280;6581;42.662;23.402;2022-11-12T05:28:53;96682.66;;;8.62;96.63
13029;BME280;6581;42.662;23.402;2022-11-12T05:31:41;96675.06;;;8.61;95.65
13029;BME280;6581;42.662;23.402;2022-11-12T05:34:27;96676.00;;;8.65;95.56
13029;BME280;6581;42.662;23.402;2022-11-12T05:37:15;96679.72;;;8.55;94.50
13029;BME280;6581;42.662;23.402;2022-11-12T05:40:01;96679.22;;;8.62;93.62
13029;BME280;6581;42.662;23.402;2022-11-12T05:42:46;96684.06;;;8.68;94.10
13029;BME280;6581;42.662;23.402;2022-11-12T05:45:32;96694.94;;;8.75;94.30
13029;BME280;6581;42.662;23.402;2022-11-12T05:48:18;96690.91;;;8.78;94.50
13029;BME280;6581;42.662;23.402;2022-11-12T05:51:29;96682.22;;;8.69;93.21
13029;BME280;6581;42.662;23.402;2022-11-12T05:54:16;96690.28;;;8.64;93.63
13029;BME280;6581;42.662;23.402;2022-11-12T05:57:02;96688.72;;;8.54;93.09
13029;BME280;6581;42.662;23.402;2022-11-12T05:59:48;96698.66;;;8.49;93.13
13029;BME280;6581;42.662;23.402;2022-11-12T06:02:34;96698.50;;;8.62;92.59
13029;BME280;6581;42.662;23.402;2022-11-12T06:05:21;96697.28;;;8.68;93.51
13029;BME280;6581;42.662;23.402;2022-11-12T06:08:07;96705.50;;;8.67;91.44
13029;BME280;6581;42.662;23.402;2022-11-12T06:10:53;96703.34;;;8.77;90.87
13029;BME280;6581;42.662;23.402;2022-11-12T06:13:39;96708.91;;;8.84;90.47
13029;BME280;6581;42.662;23.402;2022-11-12T06:16:25;96708.00;;;8.98;90.08
13029;BME280;6581;42.662;23.402;2022-11-12T06:19:11;96705.22;;;9.03;89.10
13029;BME280;6581;42.662;23.402;2022-11-12T06:21:58;96710.03;;;9.01;88.28
13029;BME280;6581;42.662;23.402;2022-11-12T06:24:50;96705.34;;;9.06;89.08
13029;BME280;6581;42.662;23.402;2022-11-12T06:27:36;96707.06;;;9.02;88.89
13029;BME280;6581;42.662;23.402;2022-11-12T06:30:22;96708.16;;;8.93;87.27
13029;BME280;6581;42.662;23.402;2022-11-12T06:33:07;96710.03;;;8.92;86.68
13029;BME280;6581;42.662;23.402;2022-11-12T06:35:57;96711.44;;;8.98;86.78
13029;BME280;6581;42.662;23.402;2022-11-12T06:38:48;96709.25;;;8.92;87.24
13029;BME280;6581;42.662;23.402;2022-11-12T06:41:33;96720.75;;;8.96;87.73
13029;BME280;6581;42.662;23.402;2022-11-12T06:44:19;96723.09;;;9.06;87.90
13029;BME280;6581;42.662;23.402;2022-11-12T06:47:05;96722.59;;;9.04;88.46
13029;BME280;6581;42.662;23.402;2022-11-12T06:49:50;96729.75;;;9.03;87.76
13029;BME280;6581;42.662;23.402;2022-11-12T06:52:36;96718.09;;;9.04;86.69
13029;BME280;6581;42.662;23.402;2022-11-12T06:55:23;96731.78;;;9.15;86.75
13029;BME280;6581;42.662;23.402;2022-11-12T06:58:09;96727.56;;;9.22;86.60
13029;BME280;6581;42.662;23.402;2022-11-12T07:00:55;96716.66;;;9.32;85.78
13029;BME280;6581;42.662;23.402;2022-11-12T07:03:41;96723.44;;;9.59;85.47
13029;BME280;6581;42.662;23.402;2022-11-12T07:06:27;96717.81;;;9.69;84.27
13029;BME280;6581;42.662;23.402;2022-11-12T07:09:14;96721.81;;;9.84;83.06
13029;BME280;6581;42.662;23.402;2022-11-12T07:12:01;96718.91;;;10.06;82.93
13029;BME280;6581;42.662;23.402;2022-11-12T07:14:46;96710.25;;;10.27;81.94
13029;BME280;6581;42.662;23.402;2022-11-12T07:17:33;96719.69;;;10.45;80.90
13029;BME280;6581;42.662;23.402;2022-11-12T07:20:19;96713.03;;;10.39;78.72
13029;BME280;6581;42.662;23.402;2022-11-12T07:23:05;96713.44;;;10.49;78.06
13029;BME280;6581;42.662;23.402;2022-11-12T07:25:55;96716.63;;;10.34;77.30
13029;BME280;6581;42.662;23.402;2022-11-12T07:28:43;96715.53;;;10.35;76.15
13029;BME280;6581;42.662;23.402;2022-11-12T07:31:29;96714.97;;;10.50;76.30
13029;BME280;6581;42.662;23.402;2022-11-12T07:34:16;96710.19;;;10.44;75.16
13029;BME280;6581;42.662;23.402;2022-11-12T07:37:02;96715.63;;;10.47;76.35
13029;BME280;6581;42.662;23.402;2022-11-12T07:39:47;96717.00;;;10.53;76.63
13029;BME280;6581;42.662;23.402;2022-11-12T07:42:34;96711.69;;;10.74;77.44
13029;BME280;6581;42.662;23.402;2022-11-12T07:45:21;96717.75;;;10.95;76.54
13029;BME280;6581;42.662;23.402;2022-11-12T07:48:09;96711.47;;;11.00;76.94
13029;BME280;6581;42.662;23.402;2022-11-12T07:50:59;96720.00;;;11.26;75.10
13029;BME280;6581;42.662;23.402;2022-11-12T07:53:46;96707.63;;;11.30;73.61
13029;BME280;6581;42.662;23.402;2022-11-12T07:56:33;96718.25;;;11.42;73.44
13029;BME280;6581;42.662;23.402;2022-11-12T07:59:18;96723.53;;;11.30;73.45
13029;BME280;6581;42.662;23.402;2022-11-12T08:02:07;96723.13;;;11.07;73.70
13029;BME280;6581;42.662;23.402;2022-11-12T08:04:53;96726.19;;;11.30;74.27
13029;BME280;6581;42.662;23.402;2022-11-12T08:07:39;96726.63;;;11.32;73.96
13029;BME280;6581;42.662;23.402;2022-11-12T08:10:24;96735.66;;;11.52;73.47
13029;BME280;6581;42.662;23.402;2022-11-12T08:13:10;96735.44;;;11.57;73.43
13029;BME280;6581;42.662;23.402;2022-11-12T08:15:57;96734.66;;;11.56;72.46
13029;BME280;6581;42.662;23.402;2022-11-12T08:18:44;96736.84;;;11.42;72.03
13029;BME280;6581;42.662;23.402;2022-11-12T08:21:30;96742.25;;;11.46;74.32
13029;BME280;6581;42.662;23.402;2022-11-12T08:24:17;96746.38;;;11.55;72.62
13029;BME280;6581;42.662;23.402;2022-11-12T08:27:04;96735.41;;;11.45;72.11
13029;BME280;6581;42.662;23.402;2022-11-12T08:29:49;96741.31;;;11.63;71.60
13029;BME280;6581;42.662;23.402;2022-11-12T08:32:35;96744.06;;;11.54;70.63
13029;BME280;6581;42.662;23.402;2022-11-12T08:35:22;96741.94;;;11.47;71.55
13029;BME280;6581;42.662;23.402;2022-11-12T08:38:07;96742.53;;;11.65;71.38
13029;BME280;6581;42.662;23.402;2022-11-12T08:40:54;96747.53;;;11.67;71.25
13029;BME280;6581;42.662;23.402;2022-11-12T08:43:40;96741.69;;;11.73;70.72
13029;BME280;6581;42.662;23.402;2022-11-12T08:46:26;96744.81;;;11.87;69.78
13029;BME280;6581;42.662;23.402;2022-11-12T08:49:12;96743.03;;;11.79;69.55
13029;BME280;6581;42.662;23.402;2022-11-12T08:51:59;96746.84;;;11.90;69.64
13029;BME280;6581;42.662;23.402;2022-11-12T08:54:45;96749.28;;;11.95;69.11
13029;BME280;6581;42.662;23.402;2022-11-12T08:57:31;96751.06;;;11.91;70.18
13029;BME280;6581;42.662;23.402;2022-11-12T09:00:17;96738.59;;;11.71;69.38
13029;BME280;6581;42.662;23.402;2022-11-12T09:03:04;96740.44;;;11.71;70.30
13029;BME280;6581;42.662;23.402;2022-11-12T09:05:51;96730.50;;;11.68;70.62
13029;BME280;6581;42.662;23.402;2022-11-12T09:08:38;96734.50;;;11.74;70.39
13029;BME280;6581;42.662;23.402;2022-11-12T09:11:24;96738.06;;;11.78;69.73
13029;BME280;6581;42.662;23.402;2022-11-12T09:14:10;96728.34;;;11.94;70.15
13029;BME280;6581;42.662;23.402;2022-11-12T09:16:55;96726.69;;;12.02;69.56
13029;BME280;6581;42.662;23.402;2022-11-12T09:19:41;96731.03;;;12.18;69.29
13029;BME280;6581;42.662;23.402;2022-11-12T09:22:26;96735.88;;;12.28;69.35
13029;BME280;6581;42.662;23.402;2022-11-12T09:25:37;96734.78;;;12.05;69.66
13029;BME280;6581;42.662;23.402;2022-11-12T09:28:23;96736.31;;;11.94;70.26
13029;BME280;6581;42.662;23.402;2022-11-12T09:31:09;96739.97;;;11.77;70.59
13029;BME280;6581;42.662;23.402;2022-11-12T09:33:55;96740.28;;;11.88;70.93
13029;BME280;6581;42.662;23.402;2022-11-12T09:36:41;96739.00;;;11.61;67.57
13029;BME280;6581;42.662;23.402;2022-11-12T09:39:27;96745.66;;;11.34;66.88
13029;BME280;6581;42.662;23.402;2022-11-12T09:42:15;96745.81;;;10.96;67.72
13029;BME280;6581;42.662;23.402;2022-11-12T09:45:06;96746.47;;;10.93;69.48
13029;BME280;6581;42.662;23.402;2022-11-12T09:47:58;96740.69;;;10.91;69.13
13029;BME280;6581;42.662;23.402;2022-11-12T09:50:53;96745.81;;;10.76;69.29
13029;BME280;6581;42.662;23.402;2022-11-12T09:53:45;96738.59;;;10.85;69.34
13029;BME280;6581;42.662;23.402;2022-11-12T09:56:32;96737.50;;;10.86;70.02
13029;BME280;6581;42.662;23.402;2022-11-12T09:59:20;96745.03;;;10.96;71.50
13029;BME280;6581;42.662;23.402;2022-11-12T10:02:20;96736.97;;;11.13;70.94
13029;BME280;6581;42.662;23.402;2022-11-12T10:05:24;96738.09;;;11.24;69.81
13029;BME280;6581;42.662;23.402;2022-11-12T10:08:29;96743.53;;;11.28;70.74
13029;BME280;6581;42.662;23.402;2022-11-12T10:11:35;96740.38;;;11.46;68.85
13029;BME280;6581;42.662;23.402;2022-11-12T10:15:04;96741.13;;;11.35;70.45
13029;BME280;6581;42.662;23.402;2022-11-12T10:18:12;96741.03;;;11.43;70.23
13029;BME280;6581;42.662;23.402;2022-11-12T10:21:08;96739.75;;;11.49;70.30
13029;BME280;6581;42.662;23.402;2022-11-12T10:24:00;96738.91;;;11.70;68.79
13029;BME280;6581;42.662;23.402;2022-11-12T10:26:56;96737.13;;;11.62;69.20
13029;BME280;6581;42.662;23.402;2022-11-12T10:29:48;96738.16;;;11.36;70.42
13029;BME280;6581;42.662;23.402;2022-11-12T10:32:41;96734.28;;;11.46;71.24
13029;BME280;6581;42.662;23.402;2022-11-12T10:35:27;96738.75;;;11.54;70.28
13029;BME280;6581;42.662;23.402;2022-11-12T10:38:17;96738.84;;;11.45;71.52
13029;BME280;6581;42.662;23.402;2022-11-12T10:41:18;96741.81;;;11.44;70.59
13029;BME280;6581;42.662;23.402;2022-11-12T10:44:05;96737.19;;;11.41;70.54
13029;BME280;6581;42.662;23.402;2022-11-12T10:47:23;96743.16;;;11.17;70.74
13029;BME280;6581;42.662;23.402;2022-11-12T10:50:17;96736.81;;;11.09;71.92
13029;BME280;6581;42.662;23.402;2022-11-12T10:53:06;96733.34;;;11.18;72.67
13029;BME280;6581;42.662;23.402;2022-11-12T10:55:58;96738.97;;;11.16;73.30
13029;BME280;6581;42.662;23.402;2022-11-12T10:58:44;96741.59;;;11.16;74.84
13029;BME280;6581;42.662;23.402;2022-11-12T11:01:31;96740.97;;;10.98;74.59
13029;BME280;6581;42.662;23.402;2022-11-12T11:04:28;96741.69;;;10.87;75.54
13029;BME280;6581;42.662;23.402;2022-11-12T11:07:20;96737.16;;;10.87;75.68
13029;BME280;6581;42.662;23.402;2022-11-12T11:10:22;96737.97;;;11.00;77.38
13029;BME280;6581;42.662;23.402;2022-11-12T11:13:18;96725.63;;;11.25;76.75
13029;BME280;6581;42.662;23.402;2022-11-12T11:16:06;96734.28;;;11.46;76.28
13029;BME280;6581;42.662;23.402;2022-11-12T11:18:54;96729.16;;;11.62;75.01
13029;BME280;6581;42.662;23.402;2022-11-12T11:22:05;96730.72;;;11.63;73.30
13029;BME280;6581;42.662;23.402;2022-11-12T11:25:16;96728.09;;;11.75;74.15
13029;BME280;6581;42.662;23.402;2022-11-12T11:28:12;96722.59;;;11.80;73.37
13029;BME280;6581;42.662;23.402;2022-11-12T11:31:09;96723.50;;;11.96;71.77
13029;BME280;6581;42.662;23.402;2022-11-12T11:34:10;96713.31;;;11.98;71.96
13029;BME280;6581;42.662;23.402;2022-11-12T11:37:05;96724.81;;;12.02;72.02
13029;BME280;6581;42.662;23.402;2022-11-12T11:40:00;96727.16;;;12.04;71.42
13029;BME280;6581;42.662;23.402;2022-11-12T11:46:15;96712.81;;;11.72;71.60
13029;BME280;6581;42.662;23.402;2022-11-12T11:49:15;96716.38;;;11.76;71.43
13029;BME280;6581;42.662;23.402;2022-11-12T11:52:06;96721.38;;;11.77;71.98
13029;BME280;6581;42.662;23.402;2022-11-12T11:55:08;96723.94;;;11.86;71.44
13029;BME280;6581;42.662;23.402;2022-11-12T11:58:06;96722.25;;;11.81;71.57
13029;BME280;6581;42.662;23.402;2022-11-12T12:00:59;96720.38;;;11.82;71.78
13029;BME280;6581;42.662;23.402;2022-11-12T12:04:04;96723.69;;;11.79;71.53
13029;BME280;6581;42.662;23.402;2022-11-12T12:06:59;96713.41;;;11.77;71.81
13029;BME280;6581;42.662;23.402;2022-11-12T12:09:56;96707.84;;;11.82;71.91
13029;BME280;6581;42.662;23.402;2022-11-12T12:12:52;96712.22;;;11.87;70.83
13029;BME280;6581;42.662;23.402;2022-11-12T12:15:55;96710.09;;;11.92;70.64
13029;BME280;6581;42.662;23.402;2022-11-12T12:18:50;96704.84;;;11.72;70.64
13029;BME280;6581;42.662;23.402;2022-11-12T12:21:38;96712.41;;;11.82;70.20
13029;BME280;6581;42.662;23.402;2022-11-12T12:24:28;96709.41;;;11.83;70.82
13029;BME280;6581;42.662;23.402;2022-11-12T12:27:18;96707.53;;;11.39;71.71
13029;BME280;6581;42.662;23.402;2022-11-12T12:30:11;96711.84;;;11.31;73.52
13029;BME280;6581;42.662;23.402;2022-11-12T12:33:13;96711.84;;;11.31;73.67
13029;BME280;6581;42.662;23.402;2022-11-12T12:36:05;96706.94;;;11.21;73.31
13029;BME280;6581;42.662;23.402;2022-11-12T12:39:02;96714.81;;;11.09;73.42
13029;BME280;6581;42.662;23.402;2022-11-12T12:41:53;96710.56;;;10.96;74.69
13029;BME280;6581;42.662;23.402;2022-11-12T12:44:44;96707.53;;;11.06;75.34
13029;BME280;6581;42.662;23.402;2022-11-12T12:47:49;96711.41;;;11.08;75.75
13029;BME280;6581;42.662;23.402;2022-11-12T12:50:38;96714.47;;;10.98;77.59
13029;BME280;6581;42.662;23.402;2022-11-12T12:53:33;96724.25;;;10.86;78.80
13029;BME280;6581;42.662;23.402;2022-11-12T12:56:42;96712.94;;;10.77;80.94
13029;BME280;6581;42.662;23.402;2022-11-12T12:59:29;96708.59;;;10.72;81.95
13029;BME280;6581;42.662;23.402;2022-11-12T13:02:20;96710.66;;;10.66;82.70
13029;BME280;6581;42.662;23.402;2022-11-12T13:05:21;96706.91;;;10.68;84.42
13029;BME280;6581;42.662;23.402;2022-11-12T13:08:11;96707.03;;;10.71;84.76
13029;BME280;6581;42.662;23.402;2022-11-12T13:10:58;96717.16;;;10.69;84.76
13029;BME280;6581;42.662;23.402;2022-11-12T13:13:44;96720.41;;;10.75;84.56
13029;BME280;6581;42.662;23.402;2022-11-12T13:16:55;96725.66;;;10.62;86.39
13029;BME280;6581;42.662;23.402;2022-11-12T13:19:44;96715.97;;;10.66;86.00
13029;BME280;6581;42.662;23.402;2022-11-12T13:22:49;96719.69;;;10.65;85.55
13029;BME280;6581;42.662;23.402;2022-11-12T13:25:37;96723.19;;;10.57;85.56
13029;BME280;6581;42.662;23.402;2022-11-12T13:28:23;96721.69;;;10.48;87.39
13029;BME280;6581;42.662;23.402;2022-11-12T13:31:24;96728.69;;;10.52;87.65
13029;BME280;6581;42.662;23.402;2022-11-12T13:34:12;96725.75;;;10.45;88.77
13029;BME280;6581;42.662;23.402;2022-11-12T13:37:04;96723.31;;;10.40;87.91
13029;BME280;6581;42.662;23.402;2022-11-12T13:39:50;96726.44;;;10.34;88.94
13029;BME280;6581;42.662;23.402;2022-11-12T13:42:37;96721.69;;;10.48;89.42
13029;BME280;6581;42.662;23.402;2022-11-12T13:45:39;96725.13;;;10.48;89.69
13029;BME280;6581;42.662;23.402;2022-11-12T13:48:27;96719.88;;;10.40;89.77
13029;BME280;6581;42.662;23.402;2022-11-12T13:51:16;96726.81;;;10.53;89.39
13029;BME280;6581;42.662;23.402;2022-11-12T13:54:23;96716.88;;;10.41;89.16
13029;BME280;6581;42.662;23.402;2022-11-12T13:57:14;96716.25;;;10.44;88.69
13029;BME280;6581;42.662;23.402;2022-11-12T14:00:17;96719.16;;;10.51;89.41
13029;BME280;6581;42.662;23.402;2022-11-12T14:03:05;96714.84;;;10.47;89.91
13029;BME280;6581;42.662;23.402;2022-11-12T14:05:51;96713.88;;;10.51;89.71
13029;BME280;6581;42.662;23.402;2022-11-12T14:08:49;96717.41;;;10.55;89.43
13029;BME280;6581;42.662;23.402;2022-11-12T14:11:54;96717.88;;;10.57;89.26
13029;BME280;6581;42.662;23.402;2022-11-12T14:14:58;96715.53;;;10.35;90.80
13029;BME280;6581;42.662;23.402;2022-11-12T14:17:56;96718.31;;;10.39;90.86
13029;BME280;6581;42.662;23.402;2022-11-12T14:20:45;96713.78;;;10.39;90.92
13029;BME280;6581;42.662;23.402;2022-11-12T14:23:31;96707.50;;;10.23;90.95
13029;BME280;6581;42.662;23.402;2022-11-12T14:26:35;96716.72;;;10.08;92.04
13029;BME280;6581;42.662;23.402;2022-11-12T14:29:22;96713.25;;;10.25;92.26
13029;BME280;6581;42.662;23.402;2022-11-12T14:32:34;96710.09;;;10.32;91.51
13029;BME280;6581;42.662;23.402;2022-11-12T14:35:36;96713.88;;;10.22;91.23
13029;BME280;6581;42.662;23.402;2022-11-12T14:38:24;96717.47;;;10.26;90.98
13029;BME280;6581;42.662;23.402;2022-11-12T14:41:17;96716.41;;;10.10;91.82
13029;BME280;6581;42.662;23.402;2022-11-12T14:44:04;96713.13;;;10.13;92.79
13029;BME280;6581;42.662;23.402;2022-11-12T14:46:52;96710.59;;;10.25;92.26
13029;BME280;6581;42.662;23.402;2022-11-12T14:49:40;96711.13;;;10.10;93.10
13029;BME280;6581;42.662;23.402;2022-11-12T14:52:30;96708.00;;;10.16;92.46
13029;BME280;6581;42.662;23.402;2022-11-12T14:55:22;96718.72;;;10.20;92.65
13029;BME280;6581;42.662;23.402;2022-11-12T14:58:11;96723.25;;;10.19;92.03
13029;BME280;6581;42.662;23.402;2022-11-12T15:01:16;96721.69;;;10.10;91.87
13029;BME280;6581;42.662;23.402;2022-11-12T15:04:04;96724.97;;;10.15;90.85
13029;BME280;6581;42.662;23.402;2022-11-12T15:06:53;96717.22;;;10.02;91.77
13029;BME280;6581;42.662;23.402;2022-11-12T15:09:42;96715.66;;;10.01;92.02